Ailey, Georgia
Current Conditions -  °F | °C
As of 7:35 PM on Friday 31 Oct 2014 (Local Time) from KVDI Reporting Station
Overcast Overcast  
Wind Chill: 64°   Ceiling: 11000
Heat Index: 64°   Visibility: 10mi
Dew Point: 43°   Wind: 8mph
Humidity: 45%   Direction: 310°NW
Pressure: 29.84"   Gusts: 17mph
Location:  32.19°N, 82.57°W
Report Text: KVDI 312335Z AUTO 31007G15KT 10SM OVC110 18/06 A2984 RMK AO2
Loading
Personal Weather Stations






























Interactive Weather Map
Tropical Storm Tracking
New forecast layout! Learn more

10-Day Weather Forecast

Advertisements
Track Severe Weather on mobile